Terminal Aerodrome Forecast
Issued by NWS

Home | Current Version | Previous Version | Text Only | Print | Product List | Glossary Off
Versions: 1 2 3 4 5 6 7 8 9 10 11 12 13

000
FTUS43 KUNR 251300 AAA
TAFGCC
TAF AMD
KGCC 251300Z 2513/2612 27007KT P6SM SCT040 BKN070
     FM251600 26012KT P6SM BKN040
     FM252300 25010KT P6SM SKC=

USA.gov is the U.S. government's official web portal to all federal, state and local government web resources and services.